createdAt,value
2018-05-31T15:16:31.762Z,97896.41
2018-05-31T15:19:18.399Z,97893.58
2018-05-31T15:21:58.818Z,97910.31
2018-05-31T15:24:40.458Z,97906.31
2018-05-31T15:30:22.700Z,97890.84
2018-05-31T15:32:54.588Z,97893.19
2018-05-31T15:35:30.476Z,97890.17
2018-05-31T15:38:05.354Z,97874.95
2018-05-31T15:40:37.922Z,97895.09
2018-05-31T15:43:12.369Z,97893.06
2018-05-31T15:45:45.083Z,97896.98
2018-05-31T15:48:17.012Z,97891.59
2018-05-31T15:50:49.315Z,97895.72
2018-05-31T15:53:21.319Z,97887.26
2018-05-31T15:55:56.219Z,97885.89
2018-05-31T15:58:27.994Z,97875.01
2018-05-31T16:01:00.324Z,97878.05
2018-05-31T16:03:32.032Z,97888.44
2018-05-31T16:06:03.776Z,97882.03
2018-05-31T16:08:43.279Z,97879.77
2018-05-31T16:11:15.544Z,97891.20
2018-05-31T16:13:47.760Z,97892.66
2018-05-31T16:16:38.915Z,97882.64
2018-05-31T16:19:11.011Z,97899.45
2018-05-31T16:21:46.957Z,97887.67
2018-05-31T16:24:22.766Z,97893.59
2018-05-31T16:26:54.892Z,97881.64
2018-05-31T16:32:34.268Z,97885.88
2018-05-31T16:35:06.190Z,97888.47
2018-05-31T16:37:38.615Z,97887.13
2018-05-31T16:40:17.981Z,97897.62
2018-05-31T16:42:50.010Z,97890.70
2018-05-31T16:45:23.757Z,97886.83
2018-05-31T16:47:56.083Z,97881.69
2018-05-31T16:50:28.645Z,97880.75
2018-05-31T16:53:00.564Z,97866.30
2018-05-31T16:55:34.339Z,97859.28
2018-05-31T16:58:06.981Z,97857.13
2018-05-31T17:00:39.432Z,97854.64
2018-05-31T17:03:18.319Z,97841.80
2018-05-31T17:05:50.206Z,97840.91
2018-05-31T17:08:22.264Z,97834.87
2018-05-31T17:11:11.232Z,97830.08
2018-05-31T17:13:43.096Z,97822.19
2018-05-31T17:16:15.574Z,97832.81
2018-05-31T17:18:53.236Z,97829.44
2018-05-31T17:21:25.335Z,97829.16
2018-05-31T17:27:11.012Z,97835.62
2018-05-31T17:32:52.187Z,97828.20
2018-05-31T17:35:24.830Z,97847.61
2018-05-31T17:37:56.518Z,97866.87
2018-05-31T17:40:35.516Z,97873.81
2018-05-31T17:43:12.252Z,97880.58
2018-05-31T17:45:44.443Z,97886.03
2018-05-31T17:48:25.598Z,97886.88
2018-05-31T17:50:57.663Z,97878.42
2018-05-31T17:53:30.756Z,97871.28
2018-05-31T17:56:02.805Z,97870.89
2018-05-31T17:58:37.125Z,97870.14
2018-05-31T18:01:08.694Z,97876.20
2018-05-31T18:03:40.313Z,97861.95
2018-05-31T18:06:12.164Z,97855.24
2018-05-31T18:08:44.239Z,97853.03
2018-05-31T18:11:16.195Z,97852.78
2018-05-31T18:13:48.106Z,97862.07
2018-05-31T18:16:21.066Z,97864.93
2018-05-31T18:18:52.749Z,97876.55
2018-05-31T18:24:19.689Z,97896.48
2018-05-31T18:26:51.546Z,97895.33
2018-05-31T18:29:23.780Z,97900.20
2018-05-31T18:31:56.304Z,97904.02
2018-05-31T18:34:29.009Z,97902.63
2018-05-31T18:37:01.143Z,97905.13
2018-05-31T18:42:31.100Z,97910.17
2018-05-31T18:45:03.026Z,97911.28
2018-05-31T18:47:35.418Z,97906.67
2018-05-31T18:50:08.926Z,97901.30
2018-05-31T18:52:41.979Z,97893.45
2018-05-31T18:55:13.885Z,97885.29
2018-05-31T19:00:51.804Z,97902.30
2018-05-31T19:03:23.263Z,97906.11
2018-05-31T19:05:55.189Z,97906.36
2018-05-31T19:08:32.489Z,97902.80
2018-05-31T19:11:11.389Z,97892.13
2018-05-31T19:14:13.986Z,97897.69
2018-05-31T19:16:46.431Z,97883.47
2018-05-31T19:19:22.106Z,97869.16
2018-05-31T19:21:56.666Z,97854.11
2018-05-31T19:24:35.102Z,97880.27
2018-05-31T19:27:07.215Z,97884.02
2018-05-31T19:29:40.100Z,97884.44
2018-05-31T19:32:12.694Z,97891.05
2018-05-31T19:34:43.874Z,97885.02
2018-05-31T19:37:15.205Z,97888.66
2018-05-31T19:39:48.325Z,97877.85
2018-05-31T19:42:24.653Z,97882.97
2018-05-31T19:45:31.394Z,97889.78
2018-05-31T19:49:09.787Z,97897.50
2018-05-31T19:51:45.381Z,97905.73
2018-05-31T19:54:16.822Z,97915.14
2018-05-31T19:56:49.403Z,97913.97
2018-05-31T20:01:30.366Z,97913.25
2018-05-31T20:04:01.693Z,97911.41
2018-05-31T20:06:38.007Z,97907.91
2018-05-31T20:09:10.090Z,97907.64
2018-05-31T20:11:42.740Z,97913.78
2018-05-31T20:14:16.826Z,97915.91
2018-05-31T20:16:48.420Z,97919.34
2018-05-31T20:19:36.595Z,97932.22
2018-05-31T20:22:25.899Z,97934.05
2018-05-31T20:25:32.856Z,97934.52
2018-05-31T20:28:04.467Z,97931.41
2018-05-31T20:30:37.088Z,97929.05
2018-05-31T20:33:08.564Z,97929.89
2018-05-31T20:35:40.423Z,97935.91
2018-05-31T20:38:22.900Z,97930.16
2018-05-31T20:40:54.260Z,97929.48
2018-05-31T20:43:25.651Z,97920.00
2018-05-31T20:46:16.661Z,97918.92
2018-05-31T20:48:51.601Z,97908.46
2018-05-31T20:51:23.692Z,97905.11
2018-05-31T20:53:56.765Z,97900.55
2018-05-31T20:56:28.060Z,97892.52
2018-05-31T21:01:53.866Z,97889.36
2018-05-31T21:20:05.688Z,97883.34
2018-05-31T21:22:48.969Z,97876.61
2018-05-31T21:25:21.003Z,97868.84
2018-05-31T21:36:33.285Z,97856.75
2018-05-31T21:55:02.716Z,97922.13
2018-05-31T22:00:42.877Z,97965.22
2018-05-31T22:03:17.391Z,98027.77
2018-05-31T22:05:52.088Z,98095.95
2018-05-31T22:08:26.096Z,98156.37
2018-05-31T22:10:58.718Z,98142.83
2018-05-31T22:20:22.630Z,98133.87
2018-05-31T22:22:54.740Z,98145.91
2018-05-31T22:25:25.973Z,98138.29
2018-05-31T22:27:57.146Z,98158.77
2018-05-31T22:30:28.312Z,98201.95
2018-05-31T22:32:59.792Z,98201.14
2018-05-31T22:38:48.294Z,98188.28
2018-05-31T22:41:20.704Z,98176.78
2018-05-31T22:43:52.833Z,98200.61
2018-05-31T22:52:34.657Z,98179.73
2018-05-31T22:57:27.452Z,98141.52
2018-05-31T23:00:02.431Z,98182.97
2018-05-31T23:05:36.015Z,98192.67
2018-05-31T23:08:07.276Z,98208.14
2018-05-31T23:10:38.860Z,98210.34
2018-05-31T23:13:10.165Z,98215.77
2018-05-31T23:15:41.574Z,98221.62
2018-05-31T23:18:12.988Z,98216.43
2018-05-31T23:20:45.597Z,98220.98
2018-05-31T23:23:16.864Z,98212.63
2018-05-31T23:25:47.978Z,98203.59
2018-05-31T23:31:09.301Z,98172.17
2018-05-31T23:36:39.587Z,98158.77
2018-05-31T23:39:11.000Z,98159.58
2018-05-31T23:41:42.760Z,98178.94
2018-05-31T23:47:28.682Z,98198.29
2018-05-31T23:53:03.901Z,98206.20
2018-05-31T23:58:43.763Z,98197.59
